WXM80 ListenWXM80 Stop

You find our weather info also at:

UK Metoffice

WeatherCloud

Weather Underground

Northeastern Weather Network

AWEKAS

Citizen Weather Observer Program (CWOP)

HAMweather, WeatherForYou, PWS Weather


Weather Underground History page Text

Daily Summary for September 7, 2017 Units:  Both    English   Metric
« Previous Day
Next Day »
Daily Weekly Monthly Yearly Custom
  High: Low: Average:
Temperature: 76.7 °F /  24.8 °C 59.4 °F /  15.2 °C 66.5 °F /  19.2 °C
Dew Point: 64.5 °F /  18.1 °C 53.2 °F /  11.8 °C 59 °F /  15 °C
Humidity: 97 % 53 % 79 %
Wind Speed: 6.2 mph /  10 km/h - 1.9 mph /  3.1 km/h
Wind Gust: 14.0 mph /  22.5 km/h - -
Wind:- - WSW
Pressure: 29.95 in /  1014.1 hPa 29.71 in /  1006 hPa -
Precipitation: 0.05 in /  1.27 mm    
Historical Graphs
 
 
Tabular Data for September 7, 2017
Time Temperature Dew Point Pressure Wind Wind Speed Wind Gust Humidity Rainfall Rate (Hourly)
00:07 62.2 °F /  16.8 °C 61.0 °F /  16.1 °C 29.81 in /  1009.4 hPa North 2.2 mph /  3.5 km/h 3.5 mph /  5.6 km/h 96 % 0.08 in /  2.03 mm
00:12 62.1 °F /  16.7 °C 60.9 °F /  16.1 °C 29.80 in /  1009 hPa North 1.1 mph /  1.8 km/h 3.5 mph /  5.6 km/h 96 % 0.07 in /  1.78 mm
00:17 62.2 °F /  16.8 °C 61.0 °F /  16.1 °C 29.80 in /  1009 hPa NNW 2.7 mph /  4.3 km/h 4.6 mph /  7.4 km/h 96 % 0.06 in /  1.52 mm
00:22 62.2 °F /  16.8 °C 61.0 °F /  16.1 °C 29.80 in /  1009 hPa North 3.2 mph /  5.1 km/h 4.6 mph /  7.4 km/h 96 % 0.06 in /  1.52 mm
00:27 62.1 °F /  16.7 °C 60.9 °F /  16.1 °C 29.80 in /  1009 hPa NNE 1.4 mph /  2.3 km/h 3.5 mph /  5.6 km/h 96 % 0.05 in /  1.27 mm
00:32 62.1 °F /  16.7 °C 60.9 °F /  16.1 °C 29.81 in /  1009.4 hPa NNE 0.3 mph /  0.5 km/h 3.5 mph /  5.6 km/h 96 % 0.05 in /  1.27 mm
00:37 62.1 °F /  16.7 °C 60.9 °F /  16.1 °C 29.82 in /  1009.7 hPa NNE 0.5 mph /  0.8 km/h 2.3 mph /  3.7 km/h 96 % 0.03 in /  0.76 mm
00:42 62.0 °F /  16.7 °C 60.8 °F /  16 °C 29.81 in /  1009.4 hPa Calm     96 % 0.02 in /  0.51 mm
00:53 62.0 °F /  16.7 °C 60.8 °F /  16 °C 29.81 in /  1009.4 hPa Calm     96 % 0.02 in /  0.51 mm
00:58 62.0 °F /  16.7 °C 60.8 °F /  16 °C 29.80 in /  1009 hPa Calm     96 % 0.02 in /  0.51 mm
01:03 62.0 °F /  16.7 °C 60.8 °F /  16 °C 29.80 in /  1009 hPa Calm   1.0 mph /  1.6 km/h 96 % 0.01 in /  0.25 mm
01:08 62.0 °F /  16.7 °C 60.8 °F /  16 °C 29.80 in /  1009 hPa Calm     96 % 0.01 in /  0.25 mm
01:13 61.9 °F /  16.6 °C 60.7 °F /  15.9 °C 29.79 in /  1008.7 hPa Calm   1.2 mph /  1.9 km/h 96 % 0.01 in /  0.25 mm
01:18 61.9 °F /  16.6 °C 60.7 °F /  15.9 °C 29.79 in /  1008.7 hPa Calm     96 % 0.01 in /  0.25 mm
01:23 61.9 °F /  16.6 °C 60.7 °F /  15.9 °C 29.79 in /  1008.7 hPa Calm     96 % 0.01 in /  0.25 mm
01:28 61.9 °F /  16.6 °C 60.7 °F /  15.9 °C 29.78 in /  1008.4 hPa Calm     96 % 0.01 in /  0.25 mm
01:33 61.9 °F /  16.6 °C 60.7 °F /  15.9 °C 29.76 in /  1007.7 hPa Calm   1.2 mph /  1.9 km/h 96 % 0.01 in /  0.25 mm
01:38 62.0 °F /  16.7 °C 60.8 °F /  16 °C 29.77 in /  1008 hPa Calm     96 % 0.01 in /  0.25 mm
01:43 62.0 °F /  16.7 °C 61.1 °F /  16.2 °C 29.76 in /  1007.7 hPa North 0.1 mph /  0.2 km/h 1.2 mph /  1.9 km/h 97 % 0.01 in /  0.25 mm
01:48 62.0 °F /  16.7 °C 61.1 °F /  16.2 °C 29.77 in /  1008 hPa Calm     97 % 0.00 in /  0 mm
01:53 62.0 °F /  16.7 °C 61.1 °F /  16.2 °C 29.77 in /  1008 hPa North 0.2 mph /  0.3 km/h 1.2 mph /  1.9 km/h 97 % 0.00 in /  0 mm
01:58 62.0 °F /  16.7 °C 61.1 °F /  16.2 °C 29.76 in /  1007.7 hPa NE 0.4 mph /  0.6 km/h 1.2 mph /  1.9 km/h 97 % 0.00 in /  0 mm
02:03 62.0 °F /  16.7 °C 61.1 °F /  16.2 °C 29.75 in /  1007.3 hPa Calm     97 % 0.00 in /  0 mm
02:08 62.0 °F /  16.7 °C 61.1 °F /  16.2 °C 29.76 in /  1007.7 hPa Calm     97 % 0.00 in /  0 mm
02:13 62.0 °F /  16.7 °C 61.1 °F /  16.2 °C 29.75 in /  1007.3 hPa NE 0.4 mph /  0.6 km/h 1.0 mph /  1.6 km/h 97 % 0.00 in /  0 mm
02:18 61.9 °F /  16.6 °C 61.0 °F /  16.1 °C 29.76 in /  1007.7 hPa Calm     97 % 0.00 in /  0 mm
02:23 61.9 °F /  16.6 °C 61.0 °F /  16.1 °C 29.74 in /  1007 hPa Calm     97 % 0.00 in /  0 mm
02:28 62.0 °F /  16.7 °C 61.1 °F /  16.2 °C 29.75 in /  1007.3 hPa NE 0.3 mph /  0.5 km/h 2.3 mph /  3.7 km/h 97 % 0.00 in /  0 mm
02:33 61.9 °F /  16.6 °C 61.0 °F /  16.1 °C 29.75 in /  1007.3 hPa NE 0.6 mph /  1 km/h 2.0 mph /  3.2 km/h 97 % 0.00 in /  0 mm
02:39 61.9 °F /  16.6 °C 61.0 °F /  16.1 °C 29.74 in /  1007 hPa Calm   1.2 mph /  1.9 km/h 97 % 0.00 in /  0 mm
02:44 61.9 °F /  16.6 °C 61.0 °F /  16.1 °C 29.74 in /  1007 hPa Calm     97 % 0.00 in /  0 mm
02:49 61.9 °F /  16.6 °C 61.0 °F /  16.1 °C 29.71 in /  1006 hPa SE 0.5 mph /  0.8 km/h 2.3 mph /  3.7 km/h 97 % 0.00 in /  0 mm
02:54 61.9 °F /  16.6 °C 61.0 °F /  16.1 °C 29.72 in /  1006.3 hPa ESE 0.2 mph /  0.3 km/h 3.5 mph /  5.6 km/h 97 % 0.00 in /  0 mm
02:59 61.8 °F /  16.6 °C 60.9 °F /  16.1 °C 29.73 in /  1006.7 hPa Calm     97 % 0.00 in /  0 mm
03:04 61.8 °F /  16.6 °C 60.9 °F /  16.1 °C 29.72 in /  1006.3 hPa ESE 0.8 mph /  1.3 km/h 3.5 mph /  5.6 km/h 97 % 0.00 in /  0 mm
03:09 61.8 °F /  16.6 °C 60.9 °F /  16.1 °C 29.72 in /  1006.3 hPa Calm   1.2 mph /  1.9 km/h 97 % 0.00 in /  0 mm
03:14 61.7 °F /  16.5 °C 60.8 °F /  16 °C 29.72 in /  1006.3 hPa ESE 0.1 mph /  0.2 km/h 1.2 mph /  1.9 km/h 97 % 0.00 in /  0 mm
03:19 61.7 °F /  16.5 °C 60.8 °F /  16 °C 29.72 in /  1006.3 hPa ESE 0.1 mph /  0.2 km/h 1.2 mph /  1.9 km/h 97 % 0.00 in /  0 mm
03:24 61.6 °F /  16.4 °C 60.7 °F /  15.9 °C 29.73 in /  1006.7 hPa WSW 1.8 mph /  2.9 km/h 3.5 mph /  5.6 km/h 97 % 0.00 in /  0 mm
03:29 61.6 °F /  16.4 °C 60.7 °F /  15.9 °C 29.75 in /  1007.3 hPa SW 3.7 mph /  6 km/h 10.4 mph /  16.7 km/h 97 % 0.00 in /  0 mm
03:34 61.7 °F /  16.5 °C 60.8 °F /  16 °C 29.75 in /  1007.3 hPa SSW 5.3 mph /  8.5 km/h 10.4 mph /  16.7 km/h 97 % 0.00 in /  0 mm
03:39 61.7 °F /  16.5 °C 60.8 °F /  16 °C 29.75 in /  1007.3 hPa WSW 1.0 mph /  1.6 km/h 4.6 mph /  7.4 km/h 97 % 0.00 in /  0 mm
03:44 61.8 °F /  16.6 °C 60.9 °F /  16.1 °C 29.75 in /  1007.3 hPa WNW 3.5 mph /  5.6 km/h 5.0 mph /  8 km/h 97 % 0.00 in /  0 mm
03:49 61.9 °F /  16.6 °C 61.0 °F /  16.1 °C 29.75 in /  1007.3 hPa South 2.7 mph /  4.3 km/h 9.0 mph /  14.5 km/h 97 % 0.00 in /  0 mm
03:54 62.0 °F /  16.7 °C 61.1 °F /  16.2 °C 29.76 in /  1007.7 hPa WSW 2.1 mph /  3.4 km/h 5.0 mph /  8 km/h 97 % 0.00 in /  0 mm
03:59 62.0 °F /  16.7 °C 61.1 °F /  16.2 °C 29.76 in /  1007.7 hPa WNW 1.4 mph /  2.3 km/h 3.5 mph /  5.6 km/h 97 % 0.01 in /  0.25 mm
04:04 62.1 °F /  16.7 °C 61.2 °F /  16.2 °C 29.76 in /  1007.7 hPa SW 2.8 mph /  4.5 km/h 5.8 mph /  9.3 km/h 97 % 0.01 in /  0.25 mm
04:14 62.1 °F /  16.7 °C 61.2 °F /  16.2 °C 29.76 in /  1007.7 hPa West 1.2 mph /  1.9 km/h 3.5 mph /  5.6 km/h 97 % 0.01 in /  0.25 mm
04:19 62.1 °F /  16.7 °C 61.2 °F /  16.2 °C 29.76 in /  1007.7 hPa Calm   3.5 mph /  5.6 km/h 97 % 0.01 in /  0.25 mm
04:24 62.1 °F /  16.7 °C 61.2 °F /  16.2 °C 29.76 in /  1007.7 hPa SW 0.9 mph /  1.4 km/h 3.5 mph /  5.6 km/h 97 % 0.01 in /  0.25 mm
04:29 62.1 °F /  16.7 °C 61.2 °F /  16.2 °C 29.76 in /  1007.7 hPa WSW 0.9 mph /  1.4 km/h 2.0 mph /  3.2 km/h 97 % 0.01 in /  0.25 mm
04:34 62.0 °F /  16.7 °C 61.1 °F /  16.2 °C 29.76 in /  1007.7 hPa SW 0.2 mph /  0.3 km/h 1.2 mph /  1.9 km/h 97 % 0.01 in /  0.25 mm
04:39 62.0 °F /  16.7 °C 61.1 °F /  16.2 °C 29.76 in /  1007.7 hPa WSW 0.5 mph /  0.8 km/h 2.0 mph /  3.2 km/h 97 % 0.01 in /  0.25 mm
04:44 62.0 °F /  16.7 °C 61.1 °F /  16.2 °C 29.76 in /  1007.7 hPa WSW 2.3 mph /  3.7 km/h 4.6 mph /  7.4 km/h 97 % 0.01 in /  0.25 mm
04:49 62.0 °F /  16.7 °C 61.1 °F /  16.2 °C 29.76 in /  1007.7 hPa WSW 2.9 mph /  4.7 km/h 4.6 mph /  7.4 km/h 97 % 0.01 in /  0.25 mm
04:54 62.0 °F /  16.7 °C 61.1 °F /  16.2 °C 29.77 in /  1008 hPa SW 0.8 mph /  1.3 km/h 3.5 mph /  5.6 km/h 97 % 0.01 in /  0.25 mm
05:00 62.0 °F /  16.7 °C 61.1 °F /  16.2 °C 29.77 in /  1008 hPa SW 1.6 mph /  2.6 km/h 3.5 mph /  5.6 km/h 97 % 0.00 in /  0 mm
05:05 62.0 °F /  16.7 °C 61.1 °F /  16.2 °C 29.76 in /  1007.7 hPa Calm   1.0 mph /  1.6 km/h 97 % 0.00 in /  0 mm
05:08 62.0 °F /  16.7 °C 61.1 °F /  16.2 °C 29.77 in /  1008 hPa Calm   1.2 mph /  1.9 km/h 97 % 0.00 in /  0 mm
05:13 62.0 °F /  16.7 °C 61.1 °F /  16.2 °C 29.77 in /  1008 hPa WSW 1.1 mph /  1.8 km/h 3.5 mph /  5.6 km/h 97 % 0.00 in /  0 mm
05:18 61.9 °F /  16.6 °C 61.0 °F /  16.1 °C 29.77 in /  1008 hPa SW 1.8 mph /  2.9 km/h 5.8 mph /  9.3 km/h 97 % 0.00 in /  0 mm
05:23 61.9 °F /  16.6 °C 61.0 °F /  16.1 °C 29.77 in /  1008 hPa SSW 2.4 mph /  3.9 km/h 5.8 mph /  9.3 km/h 97 % 0.00 in /  0 mm
05:28 61.8 °F /  16.6 °C 60.9 °F /  16.1 °C 29.77 in /  1008 hPa SW 2.0 mph /  3.2 km/h 3.5 mph /  5.6 km/h 97 % 0.00 in /  0 mm
05:29 61.8 °F /  16.6 °C 60.9 °F /  16.1 °C 29.77 in /  1008 hPa SW 0.2 mph /  0.3 km/h 3.5 mph /  5.6 km/h 97 % 0.00 in /  0 mm
05:34 61.8 °F /  16.6 °C 60.9 °F /  16.1 °C 29.78 in /  1008.4 hPa SW 2.7 mph /  4.3 km/h 4.6 mph /  7.4 km/h 97 % 0.00 in /  0 mm
05:39 61.8 °F /  16.6 °C 60.9 °F /  16.1 °C 29.77 in /  1008 hPa WSW 0.5 mph /  0.8 km/h 2.3 mph /  3.7 km/h 97 % 0.00 in /  0 mm
05:45 61.8 °F /  16.6 °C 60.9 °F /  16.1 °C 29.78 in /  1008.4 hPa West 2.1 mph /  3.4 km/h 6.9 mph /  11.1 km/h 97 % 0.00 in /  0 mm
05:50 61.8 °F /  16.6 °C 60.9 °F /  16.1 °C 29.78 in /  1008.4 hPa WSW 4.4 mph /  7.1 km/h 6.9 mph /  11.1 km/h 97 % 0.00 in /  0 mm
05:55 61.7 °F /  16.5 °C 60.8 °F /  16 °C 29.78 in /  1008.4 hPa SW 2.5 mph /  4 km/h 5.0 mph /  8 km/h 97 % 0.00 in /  0 mm
06:00 61.7 °F /  16.5 °C 60.8 °F /  16 °C 29.78 in /  1008.4 hPa West 1.7 mph /  2.7 km/h 7.0 mph /  11.3 km/h 97 % 0.00 in /  0 mm
06:05 61.7 °F /  16.5 °C 60.8 °F /  16 °C 29.78 in /  1008.4 hPa West 2.8 mph /  4.5 km/h 10.0 mph /  16.1 km/h 97 % 0.02 in /  0.51 mm
06:10 61.7 °F /  16.5 °C 60.8 °F /  16 °C 29.79 in /  1008.7 hPa WNW 3.5 mph /  5.6 km/h 8.1 mph /  13 km/h 97 % 0.02 in /  0.51 mm
06:15 61.5 °F /  16.4 °C 60.6 °F /  15.9 °C 29.79 in /  1008.7 hPa WSW 5.6 mph /  9 km/h 12.7 mph /  20.4 km/h 97 % 0.02 in /  0.51 mm
06:20 61.4 °F /  16.3 °C 60.5 °F /  15.8 °C 29.80 in /  1009 hPa NW 3.6 mph /  5.8 km/h 6.9 mph /  11.1 km/h 97 % 0.02 in /  0.51 mm
06:25 61.2 °F /  16.2 °C 60.3 °F /  15.7 °C 29.80 in /  1009 hPa West 1.7 mph /  2.7 km/h 3.5 mph /  5.6 km/h 97 % 0.02 in /  0.51 mm
06:30 61.0 °F /  16.1 °C 59.9 °F /  15.5 °C 29.80 in /  1009 hPa West 1.9 mph /  3.1 km/h 4.6 mph /  7.4 km/h 96 % 0.02 in /  0.51 mm
06:35 61.0 °F /  16.1 °C 60.1 °F /  15.6 °C 29.80 in /  1009 hPa WNW 4.3 mph /  6.9 km/h 6.9 mph /  11.1 km/h 97 % 0.02 in /  0.51 mm
06:40 60.9 °F /  16.1 °C 59.8 °F /  15.4 °C 29.81 in /  1009.4 hPa WNW 0.9 mph /  1.4 km/h 4.0 mph /  6.4 km/h 96 % 0.02 in /  0.51 mm
06:45 60.8 °F /  16 °C 59.9 °F /  15.5 °C 29.81 in /  1009.4 hPa West 1.7 mph /  2.7 km/h 4.6 mph /  7.4 km/h 97 % 0.02 in /  0.51 mm
06:50 60.7 °F /  15.9 °C 59.6 °F /  15.3 °C 29.81 in /  1009.4 hPa WSW 4.6 mph /  7.4 km/h 9.0 mph /  14.5 km/h 96 % 0.02 in /  0.51 mm
06:55 60.5 °F /  15.8 °C 59.4 °F /  15.2 °C 29.81 in /  1009.4 hPa NNW 0.6 mph /  1 km/h 2.0 mph /  3.2 km/h 96 % 0.02 in /  0.51 mm
07:00 60.4 °F /  15.8 °C 59.3 °F /  15.2 °C 29.81 in /  1009.4 hPa WNW 1.5 mph /  2.4 km/h 3.5 mph /  5.6 km/h 96 % 0.01 in /  0.25 mm
07:05 60.2 °F /  15.7 °C 59.1 °F /  15.1 °C 29.81 in /  1009.4 hPa WSW 0.6 mph /  1 km/h 3.5 mph /  5.6 km/h 96 % 0.00 in /  0 mm
07:10 60.0 °F /  15.6 °C 58.9 °F /  14.9 °C 29.81 in /  1009.4 hPa NW 0.1 mph /  0.2 km/h 1.2 mph /  1.9 km/h 96 % 0.00 in /  0 mm
07:15 59.9 °F /  15.5 °C 58.8 °F /  14.9 °C 29.81 in /  1009.4 hPa Calm   1.2 mph /  1.9 km/h 96 % 0.00 in /  0 mm
07:20 59.7 °F /  15.4 °C 58.6 °F /  14.8 °C 29.81 in /  1009.4 hPa West 0.9 mph /  1.4 km/h 2.0 mph /  3.2 km/h 96 % 0.00 in /  0 mm
07:25 59.6 °F /  15.3 °C 58.2 °F /  14.6 °C 29.81 in /  1009.4 hPa WSW 0.6 mph /  1 km/h 3.5 mph /  5.6 km/h 95 % 0.00 in /  0 mm
07:31 59.5 °F /  15.3 °C 58.1 °F /  14.5 °C 29.81 in /  1009.4 hPa WSW 1.0 mph /  1.6 km/h 7.0 mph /  11.3 km/h 95 % 0.00 in /  0 mm
07:36 59.4 °F /  15.2 °C 58.3 °F /  14.6 °C 29.81 in /  1009.4 hPa West 1.0 mph /  1.6 km/h 5.0 mph /  8 km/h 96 % 0.00 in /  0 mm
07:46 59.4 °F /  15.2 °C 58.3 °F /  14.6 °C 29.81 in /  1009.4 hPa Calm   4.0 mph /  6.4 km/h 96 % 0.00 in /  0 mm
07:51 59.4 °F /  15.2 °C 58.3 °F /  14.6 °C 29.81 in /  1009.4 hPa Calm   3.0 mph /  4.8 km/h 96 % 0.00 in /  0 mm
07:56 59.4 °F /  15.2 °C 58.3 °F /  14.6 °C 29.81 in /  1009.4 hPa Calm     96 % 0.00 in /  0 mm
08:01 59.5 °F /  15.3 °C 58.4 °F /  14.7 °C 29.81 in /  1009.4 hPa Calm     96 % 0.00 in /  0 mm
08:06 59.6 °F /  15.3 °C 58.5 °F /  14.7 °C 29.81 in /  1009.4 hPa WSW 2.0 mph /  3.2 km/h 6.0 mph /  9.7 km/h 96 % 0.00 in /  0 mm
08:11 59.6 °F /  15.3 °C 58.5 °F /  14.7 °C 29.81 in /  1009.4 hPa Calm   5.0 mph /  8 km/h 96 % 0.00 in /  0 mm
08:16 59.7 °F /  15.4 °C 58.6 °F /  14.8 °C 29.82 in /  1009.7 hPa SW 1.0 mph /  1.6 km/h 5.0 mph /  8 km/h 96 % 0.00 in /  0 mm
08:21 59.7 °F /  15.4 °C 58.6 °F /  14.8 °C 29.81 in /  1009.4 hPa SW 1.0 mph /  1.6 km/h 6.0 mph /  9.7 km/h 96 % 0.00 in /  0 mm
08:26 59.8 °F /  15.4 °C 58.6 °F /  14.8 °C 29.82 in /  1009.7 hPa SW 1.0 mph /  1.6 km/h 3.0 mph /  4.8 km/h 96 % 0.00 in /  0 mm
08:31 59.8 °F /  15.4 °C 58.7 °F /  14.8 °C 29.82 in /  1009.7 hPa SW 1.0 mph /  1.6 km/h 4.0 mph /  6.4 km/h 96 % 0.00 in /  0 mm
08:36 59.9 °F /  15.5 °C 58.8 °F /  14.9 °C 29.82 in /  1009.7 hPa SW 2.0 mph /  3.2 km/h 8.0 mph /  12.9 km/h 96 % 0.00 in /  0 mm
08:41 60.1 °F /  15.6 °C 59.2 °F /  15.1 °C 29.81 in /  1009.4 hPa WSW 2.0 mph /  3.2 km/h 6.0 mph /  9.7 km/h 97 % 0.00 in /  0 mm
08:46 60.3 °F /  15.7 °C 59.4 °F /  15.2 °C 29.82 in /  1009.7 hPa WSW 1.0 mph /  1.6 km/h 5.0 mph /  8 km/h 97 % 0.00 in /  0 mm
08:56 60.5 °F /  15.8 °C 59.6 °F /  15.3 °C 29.81 in /  1009.4 hPa WSW 1.0 mph /  1.6 km/h 5.0 mph /  8 km/h 97 % 0.00 in /  0 mm
09:01 60.6 °F /  15.9 °C 59.7 °F /  15.4 °C 29.81 in /  1009.4 hPa WSW 2.8 mph /  4.5 km/h 8.1 mph /  13 km/h 97 % 0.00 in /  0 mm
09:06 60.7 °F /  15.9 °C 59.8 °F /  15.4 °C 29.81 in /  1009.4 hPa Calm   2.3 mph /  3.7 km/h 97 % 0.00 in /  0 mm
09:11 60.8 °F /  16 °C 59.9 °F /  15.5 °C 29.82 in /  1009.7 hPa South 3.4 mph /  5.5 km/h 5.8 mph /  9.3 km/h 97 % 0.00 in /  0 mm
09:16 60.8 °F /  16 °C 59.9 °F /  15.5 °C 29.81 in /  1009.4 hPa West 2.2 mph /  3.5 km/h 3.5 mph /  5.6 km/h 97 % 0.00 in /  0 mm
09:21 60.8 °F /  16 °C 59.9 °F /  15.5 °C 29.82 in /  1009.7 hPa WSW 0.9 mph /  1.4 km/h 3.5 mph /  5.6 km/h 97 % 0.00 in /  0 mm
09:26 60.9 °F /  16.1 °C 59.8 °F /  15.4 °C 29.81 in /  1009.4 hPa WNW 1.7 mph /  2.7 km/h 3.5 mph /  5.6 km/h 96 % 0.00 in /  0 mm
09:31 60.9 °F /  16.1 °C 59.8 °F /  15.4 °C 29.82 in /  1009.7 hPa WSW 1.1 mph /  1.8 km/h 5.8 mph /  9.3 km/h 96 % 0.00 in /  0 mm
09:36 61.1 °F /  16.2 °C 60.0 °F /  15.6 °C 29.82 in /  1009.7 hPa WSW 2.3 mph /  3.7 km/h 4.6 mph /  7.4 km/h 96 % 0.00 in /  0 mm
09:41 61.2 °F /  16.2 °C 60.1 °F /  15.6 °C 29.82 in /  1009.7 hPa West 2.0 mph /  3.2 km/h 3.0 mph /  4.8 km/h 96 % 0.00 in /  0 mm
09:46 61.4 °F /  16.3 °C 60.2 °F /  15.7 °C 29.83 in /  1010 hPa SW 2.6 mph /  4.2 km/h 7.0 mph /  11.3 km/h 96 % 0.00 in /  0 mm
09:52 61.6 °F /  16.4 °C 60.4 °F /  15.8 °C 29.82 in /  1009.7 hPa WSW 2.5 mph /  4 km/h 5.8 mph /  9.3 km/h 96 % 0.00 in /  0 mm
09:57 61.9 °F /  16.6 °C 60.7 °F /  15.9 °C 29.82 in /  1009.7 hPa WSW 2.5 mph /  4 km/h 8.1 mph /  13 km/h 96 % 0.00 in /  0 mm
10:02 62.2 °F /  16.8 °C 60.8 °F /  16 °C 29.83 in /  1010 hPa WSW 3.7 mph /  6 km/h 6.9 mph /  11.1 km/h 95 % 0.00 in /  0 mm
10:07 62.5 °F /  16.9 °C 61.0 °F /  16.1 °C 29.83 in /  1010 hPa WSW 1.4 mph /  2.3 km/h 3.5 mph /  5.6 km/h 95 % 0.00 in /  0 mm
10:12 62.8 °F /  17.1 °C 61.3 °F /  16.3 °C 29.82 in /  1009.7 hPa WSW 2.2 mph /  3.5 km/h 6.0 mph /  9.7 km/h 95 % 0.00 in /  0 mm
10:17 63.0 °F /  17.2 °C 61.2 °F /  16.2 °C 29.83 in /  1010 hPa SW 4.0 mph /  6.4 km/h 9.0 mph /  14.5 km/h 94 % 0.00 in /  0 mm
10:22 63.2 °F /  17.3 °C 61.1 °F /  16.2 °C 29.83 in /  1010 hPa SSW 2.4 mph /  3.9 km/h 6.9 mph /  11.1 km/h 93 % 0.00 in /  0 mm
10:27 63.5 °F /  17.5 °C 61.1 °F /  16.2 °C 29.83 in /  1010 hPa SW 3.3 mph /  5.3 km/h 6.0 mph /  9.7 km/h 92 % 0.00 in /  0 mm
10:32 63.8 °F /  17.7 °C 61.4 °F /  16.3 °C 29.83 in /  1010 hPa West 1.1 mph /  1.8 km/h 5.0 mph /  8 km/h 92 % 0.00 in /  0 mm
10:37 64.1 °F /  17.8 °C 61.4 °F /  16.3 °C 29.83 in /  1010 hPa West 1.8 mph /  2.9 km/h 6.0 mph /  9.7 km/h 91 % 0.00 in /  0 mm
10:42 64.4 °F /  18 °C 61.7 °F /  16.5 °C 29.83 in /  1010 hPa West 2.7 mph /  4.3 km/h 3.5 mph /  5.6 km/h 91 % 0.00 in /  0 mm
10:47 64.8 °F /  18.2 °C 62.1 °F /  16.7 °C 29.83 in /  1010 hPa WSW 2.5 mph /  4 km/h 5.0 mph /  8 km/h 91 % 0.00 in /  0 mm
10:52 65.2 °F /  18.4 °C 62.5 °F /  16.9 °C 29.83 in /  1010 hPa WSW 5.3 mph /  8.5 km/h 9.0 mph /  14.5 km/h 91 % 0.00 in /  0 mm
10:57 65.7 °F /  18.7 °C 62.0 °F /  16.7 °C 29.83 in /  1010 hPa SW 0.8 mph /  1.3 km/h 4.6 mph /  7.4 km/h 88 % 0.00 in /  0 mm
11:02 66.2 °F /  19 °C 62.5 °F /  16.9 °C 29.83 in /  1010 hPa WSW 4.3 mph /  6.9 km/h 7.0 mph /  11.3 km/h 88 % 0.00 in /  0 mm
11:07 66.9 °F /  19.4 °C 62.2 °F /  16.8 °C 29.83 in /  1010 hPa West 6.1 mph /  9.8 km/h 8.1 mph /  13 km/h 85 % 0.00 in /  0 mm
11:12 67.6 °F /  19.8 °C 62.6 °F /  17 °C 29.83 in /  1010 hPa SSE 4.2 mph /  6.8 km/h 5.8 mph /  9.3 km/h 84 % 0.00 in /  0 mm
11:17 68.4 °F /  20.2 °C 63.7 °F /  17.6 °C 29.83 in /  1010 hPa WSW 2.0 mph /  3.2 km/h 3.5 mph /  5.6 km/h 85 % 0.00 in /  0 mm
11:22 69.3 °F /  20.7 °C 64.3 °F /  17.9 °C 29.83 in /  1010 hPa West 2.2 mph /  3.5 km/h 5.8 mph /  9.3 km/h 84 % 0.00 in /  0 mm
11:28 70.0 °F /  21.1 °C 63.5 °F /  17.5 °C 29.83 in /  1010 hPa NW 1.8 mph /  2.9 km/h 5.8 mph /  9.3 km/h 80 % 0.00 in /  0 mm
11:33 70.6 °F /  21.4 °C 63.8 °F /  17.7 °C 29.83 in /  1010 hPa West 3.6 mph /  5.8 km/h 7.0 mph /  11.3 km/h 79 % 0.00 in /  0 mm
11:38 71.3 °F /  21.8 °C 64.1 °F /  17.8 °C 29.84 in /  1010.4 hPa West 1.6 mph /  2.6 km/h 3.5 mph /  5.6 km/h 78 % 0.00 in /  0 mm
11:43 71.8 °F /  22.1 °C 63.1 °F /  17.3 °C 29.84 in /  1010.4 hPa WSW 5.8 mph /  9.3 km/h 11.5 mph /  18.5 km/h 74 % 0.00 in /  0 mm
11:48 72.4 °F /  22.4 °C 64.4 °F /  18 °C 29.84 in /  1010.4 hPa WNW 3.1 mph /  5 km/h 6.9 mph /  11.1 km/h 76 % 0.00 in /  0 mm
11:53 72.7 °F /  22.6 °C 63.5 °F /  17.5 °C 29.84 in /  1010.4 hPa West 4.2 mph /  6.8 km/h 6.9 mph /  11.1 km/h 73 % 0.00 in /  0 mm
11:58 73.0 °F /  22.8 °C 63.0 °F /  17.2 °C 29.84 in /  1010.4 hPa SW 3.4 mph /  5.5 km/h 8.1 mph /  13 km/h 71 % 0.00 in /  0 mm
12:03 73.5 °F /  23.1 °C 63.5 °F /  17.5 °C 29.85 in /  1010.7 hPa WSW 4.1 mph /  6.6 km/h 11.5 mph /  18.5 km/h 71 % 0.00 in /  0 mm
12:08 73.7 °F /  23.2 °C 63.3 °F /  17.4 °C 29.85 in /  1010.7 hPa WSW 4.6 mph /  7.4 km/h 9.0 mph /  14.5 km/h 70 % 0.00 in /  0 mm
12:13 73.7 °F /  23.2 °C 62.5 °F /  16.9 °C 29.85 in /  1010.7 hPa ESE 2.8 mph /  4.5 km/h 8.1 mph /  13 km/h 68 % 0.00 in /  0 mm
12:18 73.5 °F /  23.1 °C 63.1 °F /  17.3 °C 29.85 in /  1010.7 hPa West 4.7 mph /  7.6 km/h 6.9 mph /  11.1 km/h 70 % 0.00 in /  0 mm
12:23 73.5 °F /  23.1 °C 62.7 °F /  17.1 °C 29.84 in /  1010.4 hPa West 4.9 mph /  7.9 km/h 9.2 mph /  14.8 km/h 69 % 0.00 in /  0 mm
12:28 73.6 °F /  23.1 °C 63.2 °F /  17.3 °C 29.84 in /  1010.4 hPa SW 5.1 mph /  8.2 km/h 8.0 mph /  12.9 km/h 70 % 0.00 in /  0 mm
12:33 73.6 °F /  23.1 °C 62.0 °F /  16.7 °C 29.84 in /  1010.4 hPa SW 4.6 mph /  7.4 km/h 6.0 mph /  9.7 km/h 67 % 0.00 in /  0 mm
12:38 74.0 °F /  23.3 °C 63.6 °F /  17.6 °C 29.84 in /  1010.4 hPa West 5.2 mph /  8.4 km/h 5.8 mph /  9.3 km/h 70 % 0.00 in /  0 mm
12:43 74.1 °F /  23.4 °C 63.3 °F /  17.4 °C 29.84 in /  1010.4 hPa NNW 2.2 mph /  3.5 km/h 6.9 mph /  11.1 km/h 69 % 0.00 in /  0 mm
12:48 74.4 °F /  23.6 °C 62.7 °F /  17.1 °C 29.84 in /  1010.4 hPa SW 1.9 mph /  3.1 km/h 5.8 mph /  9.3 km/h 67 % 0.00 in /  0 mm
12:53 74.7 °F /  23.7 °C 62.1 °F /  16.7 °C 29.85 in /  1010.7 hPa WSW 4.6 mph /  7.4 km/h 8.1 mph /  13 km/h 65 % 0.00 in /  0 mm
12:58 74.7 °F /  23.7 °C 61.7 °F /  16.5 °C 29.84 in /  1010.4 hPa WSW 3.0 mph /  4.8 km/h 9.2 mph /  14.8 km/h 64 % 0.00 in /  0 mm
13:03 74.8 °F /  23.8 °C 62.7 °F /  17.1 °C 29.84 in /  1010.4 hPa WNW 4.1 mph /  6.6 km/h 4.6 mph /  7.4 km/h 66 % 0.00 in /  0 mm
13:09 74.8 °F /  23.8 °C 61.8 °F /  16.6 °C 29.84 in /  1010.4 hPa West 4.3 mph /  6.9 km/h 8.1 mph /  13 km/h 64 % 0.00 in /  0 mm
13:14 75.0 °F /  23.9 °C 64.5 °F /  18.1 °C 29.84 in /  1010.4 hPa NW 1.7 mph /  2.7 km/h 4.0 mph /  6.4 km/h 70 % 0.00 in /  0 mm
13:19 75.0 °F /  23.9 °C 62.4 °F /  16.9 °C 29.84 in /  1010.4 hPa SW 5.5 mph /  8.9 km/h 11.5 mph /  18.5 km/h 65 % 0.00 in /  0 mm
13:24 75.0 °F /  23.9 °C 62.0 °F /  16.7 °C 29.83 in /  1010 hPa NW 4.2 mph /  6.8 km/h 10.4 mph /  16.7 km/h 64 % 0.00 in /  0 mm
13:29 75.1 °F /  23.9 °C 61.2 °F /  16.2 °C 29.84 in /  1010.4 hPa SW 5.5 mph /  8.9 km/h 10.0 mph /  16.1 km/h 62 % 0.00 in /  0 mm
13:34 75.1 °F /  23.9 °C 62.5 °F /  16.9 °C 29.84 in /  1010.4 hPa NW 4.1 mph /  6.6 km/h 7.0 mph /  11.3 km/h 65 % 0.00 in /  0 mm
13:39 75.2 °F /  24 °C 62.2 °F /  16.8 °C 29.84 in /  1010.4 hPa West 4.8 mph /  7.7 km/h 8.1 mph /  13 km/h 64 % 0.00 in /  0 mm
13:44 75.5 °F /  24.2 °C 62.9 °F /  17.2 °C 29.84 in /  1010.4 hPa SW 4.4 mph /  7.1 km/h 8.1 mph /  13 km/h 65 % 0.00 in /  0 mm
13:49 75.6 °F /  24.2 °C 62.6 °F /  17 °C 29.83 in /  1010 hPa WNW 3.3 mph /  5.3 km/h 7.0 mph /  11.3 km/h 64 % 0.00 in /  0 mm
13:54 75.7 °F /  24.3 °C 62.2 °F /  16.8 °C 29.84 in /  1010.4 hPa WNW 1.8 mph /  2.9 km/h 5.8 mph /  9.3 km/h 63 % 0.00 in /  0 mm
13:59 75.9 °F /  24.4 °C 61.9 °F /  16.6 °C 29.83 in /  1010 hPa NW 1.8 mph /  2.9 km/h 9.2 mph /  14.8 km/h 62 % 0.00 in /  0 mm
14:04 75.9 °F /  24.4 °C 61.9 °F /  16.6 °C 29.83 in /  1010 hPa West 1.4 mph /  2.3 km/h 10.4 mph /  16.7 km/h 62 % 0.00 in /  0 mm
14:09 76.1 °F /  24.5 °C 63.0 °F /  17.2 °C 29.83 in /  1010 hPa WSW 2.2 mph /  3.5 km/h 4.0 mph /  6.4 km/h 64 % 0.00 in /  0 mm
14:14 76.2 °F /  24.6 °C 62.7 °F /  17.1 °C 29.83 in /  1010 hPa NNE 4.5 mph /  7.2 km/h 9.0 mph /  14.5 km/h 63 % 0.00 in /  0 mm
14:19 76.4 °F /  24.7 °C 62.0 °F /  16.7 °C 29.83 in /  1010 hPa SSW 0.6 mph /  1 km/h 6.9 mph /  11.1 km/h 61 % 0.00 in /  0 mm
14:24 76.5 °F /  24.7 °C 61.6 °F /  16.4 °C 29.83 in /  1010 hPa NW 1.9 mph /  3.1 km/h 6.0 mph /  9.7 km/h 60 % 0.00 in /  0 mm
14:29 76.6 °F /  24.8 °C 61.7 °F /  16.5 °C 29.83 in /  1010 hPa WSW 2.9 mph /  4.7 km/h 6.9 mph /  11.1 km/h 60 % 0.00 in /  0 mm
14:34 76.7 °F /  24.8 °C 62.2 °F /  16.8 °C 29.83 in /  1010 hPa WSW 6.2 mph /  10 km/h 11.5 mph /  18.5 km/h 61 % 0.00 in /  0 mm
14:39 76.5 °F /  24.7 °C 62.0 °F /  16.7 °C 29.83 in /  1010 hPa WNW 0.8 mph /  1.3 km/h 4.6 mph /  7.4 km/h 61 % 0.00 in /  0 mm
14:41 76.5 °F /  24.7 °C 62.0 °F /  16.7 °C 29.83 in /  1010 hPa West 3.0 mph /  4.8 km/h 8.0 mph /  12.9 km/h 61 % 0.00 in /  0 mm
14:46 76.4 °F /  24.7 °C 62.0 °F /  16.7 °C 29.83 in /  1010 hPa WNW 1.3 mph /  2.1 km/h 5.8 mph /  9.3 km/h 61 % 0.00 in /  0 mm
14:51 76.3 °F /  24.6 °C 61.4 °F /  16.3 °C 29.82 in /  1009.7 hPa WNW 4.2 mph /  6.8 km/h 9.2 mph /  14.8 km/h 60 % 0.00 in /  0 mm
14:56 76.2 °F /  24.6 °C 61.8 °F /  16.6 °C 29.82 in /  1009.7 hPa WNW 1.4 mph /  2.3 km/h 4.0 mph /  6.4 km/h 61 % 0.00 in /  0 mm
15:01 76.2 °F /  24.6 °C 61.3 °F /  16.3 °C 29.82 in /  1009.7 hPa NW 3.6 mph /  5.8 km/h 8.1 mph /  13 km/h 60 % 0.00 in /  0 mm
15:06 76.3 °F /  24.6 °C 60.9 °F /  16.1 °C 29.82 in /  1009.7 hPa WNW 4.4 mph /  7.1 km/h 8.1 mph /  13 km/h 59 % 0.00 in /  0 mm
15:11 76.3 °F /  24.6 °C 61.4 °F /  16.3 °C 29.82 in /  1009.7 hPa West 3.0 mph /  4.8 km/h 7.0 mph /  11.3 km/h 60 % 0.00 in /  0 mm
15:16 76.2 °F /  24.6 °C 60.8 °F /  16 °C 29.82 in /  1009.7 hPa WNW 2.4 mph /  3.9 km/h 6.9 mph /  11.1 km/h 59 % 0.00 in /  0 mm
15:21 76.0 °F /  24.4 °C 61.1 °F /  16.2 °C 29.82 in /  1009.7 hPa West 3.4 mph /  5.5 km/h 4.6 mph /  7.4 km/h 60 % 0.00 in /  0 mm
15:26 75.8 °F /  24.3 °C 61.4 °F /  16.3 °C 29.82 in /  1009.7 hPa WNW 1.4 mph /  2.3 km/h 3.5 mph /  5.6 km/h 61 % 0.00 in /  0 mm
15:31 75.6 °F /  24.2 °C 61.2 °F /  16.2 °C 29.82 in /  1009.7 hPa WSW 3.3 mph /  5.3 km/h 5.8 mph /  9.3 km/h 61 % 0.00 in /  0 mm
15:36 75.5 °F /  24.2 °C 61.1 °F /  16.2 °C 29.82 in /  1009.7 hPa WSW 2.8 mph /  4.5 km/h 6.9 mph /  11.1 km/h 61 % 0.00 in /  0 mm
15:41 75.5 °F /  24.2 °C 60.6 °F /  15.9 °C 29.82 in /  1009.7 hPa WSW 3.8 mph /  6.1 km/h 8.1 mph /  13 km/h 60 % 0.00 in /  0 mm
15:46 75.5 °F /  24.2 °C 60.6 °F /  15.9 °C 29.82 in /  1009.7 hPa SW 3.6 mph /  5.8 km/h 6.9 mph /  11.1 km/h 60 % 0.00 in /  0 mm
15:51 75.4 °F /  24.1 °C 60.1 °F /  15.6 °C 29.82 in /  1009.7 hPa SSW 2.1 mph /  3.4 km/h 4.0 mph /  6.4 km/h 59 % 0.00 in /  0 mm
15:56 75.5 °F /  24.2 °C 59.7 °F /  15.4 °C 29.82 in /  1009.7 hPa SW 4.9 mph /  7.9 km/h 9.2 mph /  14.8 km/h 58 % 0.00 in /  0 mm
16:01 75.6 °F /  24.2 °C 59.8 °F /  15.4 °C 29.82 in /  1009.7 hPa SW 4.3 mph /  6.9 km/h 9.2 mph /  14.8 km/h 58 % 0.00 in /  0 mm
16:06 75.6 °F /  24.2 °C 59.3 °F /  15.2 °C 29.82 in /  1009.7 hPa WSW 2.0 mph /  3.2 km/h 8.1 mph /  13 km/h 57 % 0.00 in /  0 mm
16:11 75.7 °F /  24.3 °C 59.9 °F /  15.5 °C 29.82 in /  1009.7 hPa WSW 3.4 mph /  5.5 km/h 14.0 mph /  22.5 km/h 58 % 0.00 in /  0 mm
16:16 75.7 °F /  24.3 °C 58.9 °F /  14.9 °C 29.81 in /  1009.4 hPa SW 3.9 mph /  6.3 km/h 8.1 mph /  13 km/h 56 % 0.00 in /  0 mm
16:21 75.7 °F /  24.3 °C 58.4 °F /  14.7 °C 29.82 in /  1009.7 hPa WSW 4.7 mph /  7.6 km/h 6.9 mph /  11.1 km/h 55 % 0.00 in /  0 mm
16:26 75.7 °F /  24.3 °C 59.4 °F /  15.2 °C 29.82 in /  1009.7 hPa SW 5.5 mph /  8.9 km/h 8.1 mph /  13 km/h 57 % 0.00 in /  0 mm
16:31 75.7 °F /  24.3 °C 59.4 °F /  15.2 °C 29.82 in /  1009.7 hPa WSW 2.0 mph /  3.2 km/h 3.5 mph /  5.6 km/h 57 % 0.00 in /  0 mm
16:36 75.6 °F /  24.2 °C 58.8 °F /  14.9 °C 29.82 in /  1009.7 hPa WSW 3.5 mph /  5.6 km/h 5.0 mph /  8 km/h 56 % 0.00 in /  0 mm
16:41 75.5 °F /  24.2 °C 59.7 °F /  15.4 °C 29.82 in /  1009.7 hPa WSW 1.3 mph /  2.1 km/h 4.6 mph /  7.4 km/h 58 % 0.00 in /  0 mm
16:46 75.5 °F /  24.2 °C 60.6 °F /  15.9 °C 29.82 in /  1009.7 hPa SW 5.7 mph /  9.2 km/h 8.1 mph /  13 km/h 60 % 0.00 in /  0 mm
16:51 75.5 °F /  24.2 °C 59.7 °F /  15.4 °C 29.82 in /  1009.7 hPa West 2.5 mph /  4 km/h 3.5 mph /  5.6 km/h 58 % 0.00 in /  0 mm
16:56 75.4 °F /  24.1 °C 59.1 °F /  15.1 °C 29.82 in /  1009.7 hPa WSW 4.7 mph /  7.6 km/h 5.0 mph /  8 km/h 57 % 0.00 in /  0 mm
17:01 75.3 °F /  24.1 °C 60.0 °F /  15.6 °C 29.82 in /  1009.7 hPa SSW 0.8 mph /  1.3 km/h 4.0 mph /  6.4 km/h 59 % 0.00 in /  0 mm
17:06 75.1 °F /  23.9 °C 58.8 °F /  14.9 °C 29.82 in /  1009.7 hPa Calm   3.5 mph /  5.6 km/h 57 % 0.00 in /  0 mm
17:11 75.0 °F /  23.9 °C 59.7 °F /  15.4 °C 29.82 in /  1009.7 hPa SSW 0.2 mph /  0.3 km/h 1.2 mph /  1.9 km/h 59 % 0.00 in /  0 mm
17:16 74.9 °F /  23.8 °C 58.6 °F /  14.8 °C 29.82 in /  1009.7 hPa SW 2.1 mph /  3.4 km/h 5.8 mph /  9.3 km/h 57 % 0.00 in /  0 mm
17:21 74.7 °F /  23.7 °C 57.5 °F /  14.2 °C 29.83 in /  1010 hPa WSW 3.8 mph /  6.1 km/h 8.1 mph /  13 km/h 55 % 0.00 in /  0 mm
17:26 74.5 °F /  23.6 °C 57.3 °F /  14.1 °C 29.83 in /  1010 hPa NW 3.1 mph /  5 km/h 11.0 mph /  17.7 km/h 55 % 0.00 in /  0 mm
17:31 74.1 °F /  23.4 °C 56.9 °F /  13.8 °C 29.82 in /  1009.7 hPa WNW 5.2 mph /  8.4 km/h 8.1 mph /  13 km/h 55 % 0.00 in /  0 mm
17:36 73.9 °F /  23.3 °C 55.7 °F /  13.2 °C 29.82 in /  1009.7 hPa SW 5.6 mph /  9 km/h 8.1 mph /  13 km/h 53 % 0.00 in /  0 mm
17:41 73.6 °F /  23.1 °C 56.4 °F /  13.6 °C 29.83 in /  1010 hPa SSW 4.0 mph /  6.4 km/h 7.0 mph /  11.3 km/h 55 % 0.00 in /  0 mm
17:46 73.3 °F /  22.9 °C 55.6 °F /  13.1 °C 29.83 in /  1010 hPa SSW 2.7 mph /  4.3 km/h 8.1 mph /  13 km/h 54 % 0.00 in /  0 mm
17:52 73.0 °F /  22.8 °C 55.9 °F /  13.3 °C 29.83 in /  1010 hPa SSW 3.2 mph /  5.1 km/h 3.5 mph /  5.6 km/h 55 % 0.00 in /  0 mm
17:57 72.7 °F /  22.6 °C 55.1 °F /  12.8 °C 29.83 in /  1010 hPa WSW 3.1 mph /  5 km/h 9.2 mph /  14.8 km/h 54 % 0.00 in /  0 mm
18:02 72.4 °F /  22.4 °C 55.3 °F /  12.9 °C 29.83 in /  1010 hPa SW 5.6 mph /  9 km/h 10.4 mph /  16.7 km/h 55 % 0.00 in /  0 mm
18:07 72.2 °F /  22.3 °C 55.6 °F /  13.1 °C 29.83 in /  1010 hPa WSW 1.8 mph /  2.9 km/h 3.5 mph /  5.6 km/h 56 % 0.00 in /  0 mm
18:12 72.1 °F /  22.3 °C 55.5 °F /  13.1 °C 29.83 in /  1010 hPa WSW 3.9 mph /  6.3 km/h 5.8 mph /  9.3 km/h 56 % 0.00 in /  0 mm
18:17 71.8 °F /  22.1 °C 55.3 °F /  12.9 °C 29.83 in /  1010 hPa WSW 2.9 mph /  4.7 km/h 6.9 mph /  11.1 km/h 56 % 0.00 in /  0 mm
18:22 71.6 °F /  22 °C 55.6 °F /  13.1 °C 29.84 in /  1010.4 hPa SW 2.0 mph /  3.2 km/h 4.0 mph /  6.4 km/h 57 % 0.00 in /  0 mm
18:27 71.3 °F /  21.8 °C 55.3 °F /  12.9 °C 29.84 in /  1010.4 hPa SW 1.4 mph /  2.3 km/h 3.5 mph /  5.6 km/h 57 % 0.00 in /  0 mm
18:32 71.1 °F /  21.7 °C 55.6 °F /  13.1 °C 29.84 in /  1010.4 hPa SSW 2.3 mph /  3.7 km/h 4.0 mph /  6.4 km/h 58 % 0.00 in /  0 mm
18:37 70.9 °F /  21.6 °C 55.4 °F /  13 °C 29.84 in /  1010.4 hPa WSW 1.3 mph /  2.1 km/h 3.5 mph /  5.6 km/h 58 % 0.00 in /  0 mm
18:42 70.6 °F /  21.4 °C 55.6 °F /  13.1 °C 29.84 in /  1010.4 hPa WSW 2.2 mph /  3.5 km/h 6.9 mph /  11.1 km/h 59 % 0.00 in /  0 mm
18:44 70.5 °F /  21.4 °C 55.5 °F /  13.1 °C 29.84 in /  1010.4 hPa SSW 2.7 mph /  4.3 km/h 4.6 mph /  7.4 km/h 59 % 0.00 in /  0 mm
18:49 70.3 °F /  21.3 °C 55.3 °F /  12.9 °C 29.85 in /  1010.7 hPa WSW 2.2 mph /  3.5 km/h 4.0 mph /  6.4 km/h 59 % 0.00 in /  0 mm
18:54 70.0 °F /  21.1 °C 55.5 °F /  13.1 °C 29.85 in /  1010.7 hPa WSW 0.7 mph /  1.1 km/h 5.8 mph /  9.3 km/h 60 % 0.00 in /  0 mm
18:59 69.8 °F /  21 °C 55.3 °F /  12.9 °C 29.85 in /  1010.7 hPa West 1.3 mph /  2.1 km/h 3.5 mph /  5.6 km/h 60 % 0.00 in /  0 mm
19:04 69.6 °F /  20.9 °C 55.6 °F /  13.1 °C 29.85 in /  1010.7 hPa South 0.9 mph /  1.4 km/h 3.5 mph /  5.6 km/h 61 % 0.00 in /  0 mm
19:09 69.3 °F /  20.7 °C 54.8 °F /  12.7 °C 29.85 in /  1010.7 hPa WSW 3.9 mph /  6.3 km/h 8.1 mph /  13 km/h 60 % 0.00 in /  0 mm
19:14 69.1 °F /  20.6 °C 54.6 °F /  12.6 °C 29.85 in /  1010.7 hPa SW 2.4 mph /  3.9 km/h 6.0 mph /  9.7 km/h 60 % 0.00 in /  0 mm
19:19 68.9 °F /  20.5 °C 54.4 °F /  12.4 °C 29.86 in /  1011.1 hPa WSW 2.5 mph /  4 km/h 2.5 mph /  4 km/h 60 % 0.00 in /  0 mm
19:25 68.7 °F /  20.4 °C 54.3 °F /  12.4 °C 29.86 in /  1011.1 hPa SW 1.0 mph /  1.6 km/h 3.5 mph /  5.6 km/h 60 % 0.00 in /  0 mm
19:30 68.5 °F /  20.3 °C 54.1 °F /  12.3 °C 29.86 in /  1011.1 hPa South 1.9 mph /  3.1 km/h 4.0 mph /  6.4 km/h 60 % 0.00 in /  0 mm
19:35 68.4 °F /  20.2 °C 54.0 °F /  12.2 °C 29.87 in /  1011.4 hPa Calm   2.3 mph /  3.7 km/h 60 % 0.00 in /  0 mm
19:40 68.2 °F /  20.1 °C 53.8 °F /  12.1 °C 29.87 in /  1011.4 hPa WSW 0.5 mph /  0.8 km/h 8.1 mph /  13 km/h 60 % 0.00 in /  0 mm
19:45 68.0 °F /  20 °C 54.0 °F /  12.2 °C 29.87 in /  1011.4 hPa WSW 1.1 mph /  1.8 km/h 4.6 mph /  7.4 km/h 61 % 0.00 in /  0 mm
19:50 67.9 °F /  19.9 °C 54.0 °F /  12.2 °C 29.87 in /  1011.4 hPa SW 1.4 mph /  2.3 km/h 3.5 mph /  5.6 km/h 61 % 0.00 in /  0 mm
19:55 67.7 °F /  19.8 °C 53.3 °F /  11.8 °C 29.88 in /  1011.7 hPa SSW 1.6 mph /  2.6 km/h 4.6 mph /  7.4 km/h 60 % 0.00 in /  0 mm
20:00 67.5 °F /  19.7 °C 53.6 °F /  12 °C 29.88 in /  1011.7 hPa SW 0.5 mph /  0.8 km/h 2.3 mph /  3.7 km/h 61 % 0.00 in /  0 mm
20:05 67.3 °F /  19.6 °C 53.4 °F /  11.9 °C 29.88 in /  1011.7 hPa SW 1.4 mph /  2.3 km/h 3.5 mph /  5.6 km/h 61 % 0.00 in /  0 mm
20:10 67.1 °F /  19.5 °C 53.6 °F /  12 °C 29.89 in /  1012.1 hPa SW 2.0 mph /  3.2 km/h 3.5 mph /  5.6 km/h 62 % 0.00 in /  0 mm
20:15 66.9 °F /  19.4 °C 53.5 °F /  11.9 °C 29.89 in /  1012.1 hPa SW 0.2 mph /  0.3 km/h 2.0 mph /  3.2 km/h 62 % 0.00 in /  0 mm
20:20 66.8 °F /  19.3 °C 53.4 °F /  11.9 °C 29.89 in /  1012.1 hPa SW 1.8 mph /  2.9 km/h 3.5 mph /  5.6 km/h 62 % 0.00 in /  0 mm
20:25 66.6 °F /  19.2 °C 53.6 °F /  12 °C 29.89 in /  1012.1 hPa SW 0.1 mph /  0.2 km/h 1.2 mph /  1.9 km/h 63 % 0.00 in /  0 mm
20:30 66.4 °F /  19.1 °C 53.8 °F /  12.1 °C 29.89 in /  1012.1 hPa SW 1.7 mph /  2.7 km/h 2.3 mph /  3.7 km/h 64 % 0.00 in /  0 mm
20:35 66.2 °F /  19 °C 53.7 °F /  12.1 °C 29.90 in /  1012.4 hPa WSW 1.6 mph /  2.6 km/h 2.0 mph /  3.2 km/h 64 % 0.00 in /  0 mm
20:40 66.0 °F /  18.9 °C 53.5 °F /  11.9 °C 29.90 in /  1012.4 hPa WSW 0.9 mph /  1.4 km/h 1.0 mph /  1.6 km/h 64 % 0.00 in /  0 mm
20:46 65.8 °F /  18.8 °C 53.7 °F /  12.1 °C 29.90 in /  1012.4 hPa WSW 0.8 mph /  1.3 km/h 2.3 mph /  3.7 km/h 65 % 0.00 in /  0 mm
20:51 65.6 °F /  18.7 °C 53.5 °F /  11.9 °C 29.90 in /  1012.4 hPa SW 1.4 mph /  2.3 km/h 2.3 mph /  3.7 km/h 65 % 0.00 in /  0 mm
20:56 65.5 °F /  18.6 °C 53.4 °F /  11.9 °C 29.91 in /  1012.8 hPa SW 1.0 mph /  1.6 km/h 4.0 mph /  6.4 km/h 65 % 0.00 in /  0 mm
21:01 65.4 °F /  18.6 °C 53.7 °F /  12.1 °C 29.91 in /  1012.8 hPa SW 0.3 mph /  0.5 km/h 3.5 mph /  5.6 km/h 66 % 0.00 in /  0 mm
21:06 65.2 °F /  18.4 °C 53.6 °F /  12 °C 29.91 in /  1012.8 hPa WSW 0.8 mph /  1.3 km/h 3.5 mph /  5.6 km/h 66 % 0.00 in /  0 mm
21:11 65.0 °F /  18.3 °C 53.8 °F /  12.1 °C 29.91 in /  1012.8 hPa WSW 1.9 mph /  3.1 km/h 3.5 mph /  5.6 km/h 67 % 0.00 in /  0 mm
21:16 64.9 °F /  18.3 °C 53.7 °F /  12.1 °C 29.91 in /  1012.8 hPa Calm   1.2 mph /  1.9 km/h 67 % 0.00 in /  0 mm
21:21 64.7 °F /  18.2 °C 53.5 °F /  11.9 °C 29.91 in /  1012.8 hPa SW 0.4 mph /  0.6 km/h 2.3 mph /  3.7 km/h 67 % 0.00 in /  0 mm
21:26 64.6 °F /  18.1 °C 53.4 °F /  11.9 °C 29.91 in /  1012.8 hPa SW 0.7 mph /  1.1 km/h 2.3 mph /  3.7 km/h 67 % 0.00 in /  0 mm
21:31 64.4 °F /  18 °C 53.6 °F /  12 °C 29.91 in /  1012.8 hPa Calm     68 % 0.00 in /  0 mm
21:36 64.3 °F /  17.9 °C 53.5 °F /  11.9 °C 29.91 in /  1012.8 hPa SW 0.2 mph /  0.3 km/h 2.0 mph /  3.2 km/h 68 % 0.00 in /  0 mm
21:41 64.1 °F /  17.8 °C 53.7 °F /  12.1 °C 29.92 in /  1013.1 hPa SW 1.0 mph /  1.6 km/h 3.5 mph /  5.6 km/h 69 % 0.00 in /  0 mm
21:46 64.0 °F /  17.8 °C 53.6 °F /  12 °C 29.92 in /  1013.1 hPa SSW 0.1 mph /  0.2 km/h 3.5 mph /  5.6 km/h 69 % 0.00 in /  0 mm
21:51 63.8 °F /  17.7 °C 53.8 °F /  12.1 °C 29.92 in /  1013.1 hPa SW 0.3 mph /  0.5 km/h 2.3 mph /  3.7 km/h 70 % 0.00 in /  0 mm
21:56 63.6 °F /  17.6 °C 53.6 °F /  12 °C 29.92 in /  1013.1 hPa SW 1.4 mph /  2.3 km/h 4.0 mph /  6.4 km/h 70 % 0.00 in /  0 mm
22:01 63.4 °F /  17.4 °C 53.8 °F /  12.1 °C 29.93 in /  1013.4 hPa WSW 1.0 mph /  1.6 km/h 3.5 mph /  5.6 km/h 71 % 0.00 in /  0 mm
22:11 63.1 °F /  17.3 °C 53.5 °F /  11.9 °C 29.93 in /  1013.4 hPa WSW 0.7 mph /  1.1 km/h 1.2 mph /  1.9 km/h 71 % 0.00 in /  0 mm
22:17 63.0 °F /  17.2 °C 53.4 °F /  11.9 °C 29.93 in /  1013.4 hPa West 2.4 mph /  3.9 km/h 5.8 mph /  9.3 km/h 71 % 0.00 in /  0 mm
22:22 62.9 °F /  17.2 °C 53.7 °F /  12.1 °C 29.93 in /  1013.4 hPa SSW 1.7 mph /  2.7 km/h 1.7 mph /  2.7 km/h 72 % 0.00 in /  0 mm
22:27 62.8 °F /  17.1 °C 53.6 °F /  12 °C 29.93 in /  1013.4 hPa SW 1.8 mph /  2.9 km/h 4.6 mph /  7.4 km/h 72 % 0.00 in /  0 mm
22:32 62.8 °F /  17.1 °C 53.6 °F /  12 °C 29.93 in /  1013.4 hPa SW 0.9 mph /  1.4 km/h 1.2 mph /  1.9 km/h 72 % 0.00 in /  0 mm
22:37 62.7 °F /  17.1 °C 53.5 °F /  11.9 °C 29.93 in /  1013.4 hPa Calm     72 % 0.00 in /  0 mm
22:42 62.7 °F /  17.1 °C 53.5 °F /  11.9 °C 29.93 in /  1013.4 hPa Calm     72 % 0.00 in /  0 mm
22:47 62.6 °F /  17 °C 53.8 °F /  12.1 °C 29.93 in /  1013.4 hPa SW 0.1 mph /  0.2 km/h 2.3 mph /  3.7 km/h 73 % 0.00 in /  0 mm
22:52 62.6 °F /  17 °C 53.4 °F /  11.9 °C 29.93 in /  1013.4 hPa WSW 1.1 mph /  1.8 km/h 4.0 mph /  6.4 km/h 72 % 0.00 in /  0 mm
22:57 62.5 °F /  16.9 °C 53.3 °F /  11.8 °C 29.93 in /  1013.4 hPa Calm     72 % 0.00 in /  0 mm
23:02 62.5 °F /  16.9 °C 53.7 °F /  12.1 °C 29.94 in /  1013.8 hPa SSW 0.4 mph /  0.6 km/h 3.0 mph /  4.8 km/h 73 % 0.00 in /  0 mm
23:07 62.5 °F /  16.9 °C 53.7 °F /  12.1 °C 29.94 in /  1013.8 hPa SSW 0.1 mph /  0.2 km/h 1.2 mph /  1.9 km/h 73 % 0.00 in /  0 mm
23:12 62.4 °F /  16.9 °C 53.6 °F /  12 °C 29.94 in /  1013.8 hPa SSW 0.2 mph /  0.3 km/h 3.5 mph /  5.6 km/h 73 % 0.00 in /  0 mm
23:18 62.4 °F /  16.9 °C 53.6 °F /  12 °C 29.94 in /  1013.8 hPa SW 0.9 mph /  1.4 km/h 3.5 mph /  5.6 km/h 73 % 0.00 in /  0 mm
23:19 62.4 °F /  16.9 °C 53.6 °F /  12 °C 29.94 in /  1013.8 hPa SW 0.4 mph /  0.6 km/h 2.3 mph /  3.7 km/h 73 % 0.00 in /  0 mm
23:23 62.3 °F /  16.8 °C 53.5 °F /  11.9 °C 29.94 in /  1013.8 hPa SW 0.1 mph /  0.2 km/h 2.3 mph /  3.7 km/h 73 % 0.00 in /  0 mm
23:25 62.3 °F /  16.8 °C 53.5 °F /  11.9 °C 29.94 in /  1013.8 hPa SW 0.2 mph /  0.3 km/h 1.2 mph /  1.9 km/h 73 % 0.00 in /  0 mm
23:26 62.3 °F /  16.8 °C 53.5 °F /  11.9 °C 29.94 in /  1013.8 hPa Calm   1.2 mph /  1.9 km/h 73 % 0.00 in /  0 mm
23:27 62.3 °F /  16.8 °C 53.5 °F /  11.9 °C 29.94 in /  1013.8 hPa Calm     73 % 0.00 in /  0 mm
23:32 62.2 °F /  16.8 °C 53.4 °F /  11.9 °C 29.94 in /  1013.8 hPa SW 0.5 mph /  0.8 km/h 2.3 mph /  3.7 km/h 73 % 0.00 in /  0 mm
23:35 62.2 °F /  16.8 °C 53.4 °F /  11.9 °C 29.94 in /  1013.8 hPa SW 0.5 mph /  0.8 km/h 1.0 mph /  1.6 km/h 73 % 0.00 in /  0 mm
23:40 62.1 °F /  16.7 °C 53.7 °F /  12.1 °C 29.94 in /  1013.8 hPa SW 0.3 mph /  0.5 km/h 1.2 mph /  1.9 km/h 74 % 0.00 in /  0 mm
23:45 62.0 °F /  16.7 °C 53.2 °F /  11.8 °C 29.94 in /  1013.8 hPa Calm   1.2 mph /  1.9 km/h 73 % 0.00 in /  0 mm
23:50 61.9 °F /  16.6 °C 53.5 °F /  11.9 °C 29.95 in /  1014.1 hPa SW 1.9 mph /  3.1 km/h 5.8 mph /  9.3 km/h 74 % 0.00 in /  0 mm
23:55 61.8 °F /  16.6 °C 53.4 °F /  11.9 °C 29.95 in /  1014.1 hPa SSE 0.3 mph /  0.5 km/h 1.2 mph /  1.9 km/h 74 % 0.00 in /  0 mm
Crab Meadow Weather
Compliments of Weather Underground - 3 mb

Script developed by  Jim McMurry - jmcmurry@mwt.net Adapted for the template by  Wim van der Kuil - Leuven-Template.eu

Weather Terms: Winter Storm Watch - Conditions are favorable for hazardous winter weather conditions including heavy snow, blizzard conditions, or significant accumulations of freezing rain or sleet. These watches are issued by the Weather Service Forecast Office in Upton and are usually issued 12 to 36 hours in advance of the event.